Time;durP1;ratioP1;P1;durP2;ratioP2;P2;SDS_P1;SDS_P2;PMS_P1;PMS_P2;Temp;Humidity;BMP_temperature;BMP_pressure;BME280_temperature;BME280_humidity;BME280_pressure;Samples;Min_cycle;Max_cycle;Signal;HPM_P1;HPM_P2
2021/07/25 00:00:56;;;;;;;9.97;7.93;;;;;;;20.37;57.95;100207.56;4967332;28;20213;-74
2021/07/25 00:03:22;;;;;;;10.37;8.07;;;;;;;20.34;58.33;100202.47;4961039;28;20296;-74
2021/07/25 00:05:49;;;;;;;11.97;8.30;;;;;;;20.30;58.35;100199.22;4966244;28;20221;-74
2021/07/25 00:08:15;;;;;;;9.90;8.10;;;;;;;20.27;58.30;100193.31;4965211;28;20210;-74
2021/07/25 00:10:47;;;;;;;10.60;7.53;;;;;;;20.21;58.66;100189.28;4969343;28;20300;-74
2021/07/25 00:13:14;;;;;;;11.73;8.40;;;;;;;20.16;58.82;100189.63;4978253;28;20232;-74
2021/07/25 00:15:41;;;;;;;12.87;8.03;;;;;;;20.12;58.73;100193.47;4966786;28;20225;-75
2021/07/25 00:18:08;;;;;;;13.10;8.00;;;;;;;20.11;58.91;100183.81;4972968;28;20206;-74
2021/07/25 00:20:34;;;;;;;9.80;7.60;;;;;;;20.09;59.09;100180.47;4968615;28;20202;-75
2021/07/25 00:23:02;;;;;;;10.23;7.90;;;;;;;20.04;58.72;100183.44;4969112;28;20293;-74
2021/07/25 00:25:29;;;;;;;11.27;7.80;;;;;;;19.99;59.66;100182.91;4967169;28;20225;-75
2021/07/25 00:27:56;;;;;;;10.20;7.57;;;;;;;19.98;59.55;100188.31;4972508;28;20228;-74
2021/07/25 00:30:24;;;;;;;9.87;7.37;;;;;;;19.91;59.90;100185.28;4975773;28;20252;-74
2021/07/25 00:32:51;;;;;;;10.63;8.13;;;;;;;19.81;60.08;100178.97;4971280;28;20581;-75
2021/07/25 00:35:18;;;;;;;9.73;7.57;;;;;;;19.75;60.17;100182.91;4971276;28;20465;-74
2021/07/25 00:37:47;;;;;;;10.07;7.87;;;;;;;19.71;61.00;100184.03;4967311;28;20210;-74
2021/07/25 00:40:22;;;;;;;10.13;7.87;;;;;;;19.62;61.26;100185.53;4969983;28;20205;-74
2021/07/25 00:42:48;;;;;;;10.73;8.13;;;;;;;19.54;62.18;100176.44;4969814;28;20205;-75
2021/07/25 00:45:16;;;;;;;11.10;8.07;;;;;;;19.46;62.43;100177.84;4973218;28;20225;-75
2021/07/25 00:47:44;;;;;;;9.53;7.50;;;;;;;19.42;62.74;100181.66;4969610;28;20210;-73
2021/07/25 00:50:11;;;;;;;10.73;8.37;;;;;;;19.37;63.04;100177.66;4971192;28;20217;-74
2021/07/25 00:52:38;;;;;;;10.53;7.80;;;;;;;19.28;63.27;100172.03;4969437;28;20246;-73
2021/07/25 00:55:06;;;;;;;11.40;8.33;;;;;;;19.22;63.48;100163.69;4971544;28;20201;-74
2021/07/25 00:57:33;;;;;;;11.70;7.73;;;;;;;19.16;63.54;100161.50;4972273;28;20213;-74
2021/07/25 00:59:59;;;;;;;9.53;7.57;;;;;;;19.13;63.74;100165.16;4969530;28;20602;-74
2021/07/25 01:02:31;;;;;;;11.27;8.00;;;;;;;19.08;64.23;100159.34;4969161;28;20298;-74
2021/07/25 01:05:05;;;;;;;13.73;8.60;;;;;;;19.01;63.86;100156.28;4969564;28;20229;-74
2021/07/25 01:07:40;;;;;;;11.67;8.30;;;;;;;18.97;64.16;100157.47;4968922;28;20301;-74
2021/07/25 01:10:13;;;;;;;12.10;9.13;;;;;;;18.92;64.59;100165.69;4968366;28;20700;-74
2021/07/25 01:12:44;;;;;;;12.23;9.00;;;;;;;18.91;64.00;100169.28;4969207;28;20253;-73
2021/07/25 01:15:18;;;;;;;12.60;9.97;;;;;;;18.94;64.21;100172.69;4967855;28;20399;-74
2021/07/25 01:17:45;;;;;;;13.90;9.90;;;;;;;18.95;64.21;100163.81;4962638;28;20635;-74
2021/07/25 01:20:14;;;;;;;12.97;10.27;;;;;;;18.91;64.37;100163.19;4968124;28;20573;-74
2021/07/25 01:22:43;;;;;;;12.80;10.40;;;;;;;18.84;65.46;100162.75;4973276;28;20202;-73
2021/07/25 01:25:12;;;;;;;11.47;9.57;;;;;;;18.78;65.79;100157.00;4969290;28;20202;-74
2021/07/25 01:27:42;;;;;;;13.80;10.37;;;;;;;18.72;65.31;100152.97;4969750;28;20672;-73
2021/07/25 01:30:13;;;;;;;14.83;10.90;;;;;;;18.72;65.92;100143.25;4968749;28;20697;-74
2021/07/25 01:32:41;;;;;;;15.37;11.07;;;;;;;18.70;65.60;100144.31;4967217;28;20203;-73
2021/07/25 01:35:09;;;;;;;15.60;11.20;;;;;;;18.68;65.40;100139.16;4973043;28;20217;-74
2021/07/25 01:37:37;;;;;;;16.17;10.60;;;;;;;18.71;65.72;100138.06;4969516;28;20205;-74
2021/07/25 01:40:12;;;;;;;15.63;12.30;;;;;;;18.73;65.77;100144.09;4972207;28;20201;-74
2021/07/25 01:42:38;;;;;;;15.30;11.33;;;;;;;18.75;65.68;100134.28;4966151;28;20206;-73
2021/07/25 01:45:05;;;;;;;15.03;11.83;;;;;;;18.78;65.33;100133.22;4969736;28;20198;-73
2021/07/25 01:47:32;;;;;;;16.60;11.73;;;;;;;18.83;64.83;100128.50;4971185;28;20237;-74
2021/07/25 01:49:58;;;;;;;14.50;11.37;;;;;;;18.82;65.40;100124.16;4968344;28;20674;-75
2021/07/25 01:52:25;;;;;;;14.63;11.30;;;;;;;18.82;65.56;100124.16;4968681;28;20312;-75
2021/07/25 01:54:52;;;;;;;15.83;11.83;;;;;;;18.82;65.51;100119.75;4974329;28;20217;-75
2021/07/25 01:57:19;;;;;;;13.27;10.73;;;;;;;18.83;65.47;100115.31;4967883;28;20605;-75
2021/07/25 01:59:45;;;;;;;13.10;10.83;;;;;;;18.82;65.65;100118.88;4974131;28;20194;-75
2021/07/25 02:02:11;;;;;;;16.67;11.37;;;;;;;18.82;65.58;100125.03;4972480;28;20237;-75
2021/07/25 02:04:38;;;;;;;15.43;11.10;;;;;;;18.80;66.01;100121.59;4969843;28;20605;-75
2021/07/25 02:07:05;;;;;;;14.03;10.60;;;;;;;18.79;65.60;100133.13;4973377;28;20316;-75
2021/07/25 02:09:33;;;;;;;12.03;10.40;;;;;;;18.78;65.62;100130.59;4969258;28;20198;-75
2021/07/25 02:12:03;;;;;;;13.50;10.77;;;;;;;18.78;66.09;100122.66;4963760;28;20253;-75
2021/07/25 02:14:29;;;;;;;12.77;10.30;;;;;;;18.74;66.01;100135.22;4971555;28;20745;-74
2021/07/25 02:16:55;;;;;;;13.47;11.07;;;;;;;18.73;66.35;100133.53;4969793;28;20233;-74
2021/07/25 02:19:22;;;;;;;15.33;11.43;;;;;;;18.72;66.27;100132.69;4970260;28;20202;-74
2021/07/25 02:21:48;;;;;;;13.83;11.07;;;;;;;18.71;66.75;100128.38;4967794;28;20211;-74
2021/07/25 02:24:14;;;;;;;14.33;10.77;;;;;;;18.70;66.83;100131.97;4969822;28;20197;-74
2021/07/25 02:26:41;;;;;;;15.53;10.50;;;;;;;18.68;66.84;100125.06;4973723;28;20232;-75
2021/07/25 02:29:09;;;;;;;13.47;10.00;;;;;;;18.67;67.08;100129.50;4972295;28;20194;-75
2021/07/25 02:31:35;;;;;;;12.97;9.97;;;;;;;18.67;67.26;100126.88;4969011;28;20694;-75
2021/07/25 02:34:01;;;;;;;12.77;10.13;;;;;;;18.66;67.62;100122.56;4970661;28;20222;-75
2021/07/25 02:36:28;;;;;;;13.37;10.17;;;;;;;18.66;67.95;100124.34;4971188;28;20642;-74
2021/07/25 02:38:54;;;;;;;15.60;10.37;;;;;;;18.66;67.21;100125.22;4973830;28;20205;-75
2021/07/25 02:41:20;;;;;;;12.40;10.07;;;;;;;18.67;67.32;100126.03;4971929;28;20582;-74
2021/07/25 02:43:47;;;;;;;13.50;10.17;;;;;;;18.70;67.72;100125.84;4968821;28;20577;-75
2021/07/25 02:46:15;;;;;;;12.70;10.33;;;;;;;18.72;67.34;100119.50;4971585;28;20257;-73
2021/07/25 02:48:41;;;;;;;14.30;10.57;;;;;;;18.74;68.00;100122.88;4971457;28;20547;-73
2021/07/25 02:51:07;;;;;;;13.27;10.30;;;;;;;18.77;67.52;100126.25;4971317;28;20742;-75
2021/07/25 02:53:34;;;;;;;11.97;9.63;;;;;;;18.77;67.60;100119.19;4967253;28;20225;-75
2021/07/25 02:56:00;;;;;;;13.17;10.37;;;;;;;18.76;68.16;100129.84;4971508;28;20253;-75
2021/07/25 02:58:27;;;;;;;14.30;10.27;;;;;;;18.76;68.35;100133.34;4964007;28;20563;-75
2021/07/25 03:00:53;;;;;;;14.50;9.77;;;;;;;18.78;67.91;100133.22;4970770;28;20749;-75
2021/07/25 03:03:21;;;;;;;12.50;9.60;;;;;;;18.79;68.22;100140.22;4968169;28;20198;-75
2021/07/25 03:05:47;;;;;;;12.47;9.80;;;;;;;18.81;68.77;100135.66;4969197;28;20782;-75
2021/07/25 03:08:13;;;;;;;15.07;10.37;;;;;;;18.84;68.02;100144.25;4968425;28;20201;-75
2021/07/25 03:10:40;;;;;;;13.50;9.97;;;;;;;18.87;68.18;100137.91;4971197;28;20738;-75
2021/07/25 03:13:06;;;;;;;12.40;9.60;;;;;;;18.88;68.20;100123.75;4971064;28;20209;-74
2021/07/25 03:15:33;;;;;;;14.03;10.70;;;;;;;18.86;68.61;100131.78;4969478;28;20265;-72
2021/07/25 03:17:59;;;;;;;12.47;9.47;;;;;;;18.87;68.32;100137.91;4970019;28;20209;-75
2021/07/25 03:20:27;;;;;;;11.93;9.77;;;;;;;18.88;68.68;100134.31;4967130;28;20852;-75
2021/07/25 03:22:54;;;;;;;14.10;10.20;;;;;;;18.88;68.62;100134.31;4963016;28;20687;-75
2021/07/25 03:25:20;;;;;;;12.07;9.80;;;;;;;18.90;69.10;100132.41;4969492;28;20269;-75
2021/07/25 03:27:47;;;;;;;12.40;9.80;;;;;;;18.89;68.78;100136.88;4970874;28;20213;-75
2021/07/25 03:30:14;;;;;;;13.87;9.87;;;;;;;18.92;69.18;100133.16;4970748;28;20218;-75
2021/07/25 03:32:40;;;;;;;12.00;9.83;;;;;;;18.92;69.37;100138.44;4958998;28;20199;-75
2021/07/25 03:35:07;;;;;;;13.73;10.27;;;;;;;18.93;69.13;100137.50;4969224;28;20352;-75
2021/07/25 03:37:39;;;;;;;11.33;9.67;;;;;;;18.94;69.21;100131.25;4965905;28;20224;-75
2021/07/25 03:40:07;;;;;;;12.50;10.27;;;;;;;18.96;69.60;100141.72;4961605;28;20203;-75
2021/07/25 03:42:33;;;;;;;13.47;10.50;;;;;;;18.97;69.53;100146.06;4969147;28;20217;-75
2021/07/25 03:44:59;;;;;;;13.17;11.20;;;;;;;18.99;69.72;100139.69;4968860;28;20289;-75
2021/07/25 03:47:26;;;;;;;14.07;10.50;;;;;;;19.00;70.08;100132.66;4970373;28;20213;-74
2021/07/25 03:49:52;;;;;;;17.50;11.10;;;;;;;19.01;69.77;100142.25;4969047;28;20297;-75
2021/07/25 03:52:19;;;;;;;14.00;11.00;;;;;;;19.02;69.94;100139.50;4968099;28;20594;-75
2021/07/25 03:54:46;;;;;;;14.80;12.00;;;;;;;19.03;70.00;100145.63;4968091;28;20218;-75
2021/07/25 03:57:13;;;;;;;15.37;11.17;;;;;;;19.04;70.35;100142.03;4962191;28;20233;-74
2021/07/25 03:59:40;;;;;;;12.67;10.30;;;;;;;19.02;70.29;100143.94;4970136;28;20671;-75
2021/07/25 04:02:07;;;;;;;14.17;10.17;;;;;;;19.02;70.12;100142.13;4962792;28;20230;-75
2021/07/25 04:04:33;;;;;;;13.57;10.27;;;;;;;19.02;70.55;100144.78;4968315;28;20422;-71
2021/07/25 04:06:59;;;;;;;12.30;10.33;;;;;;;19.02;70.81;100146.59;4964933;28;20218;-75
2021/07/25 04:09:26;;;;;;;12.57;10.37;;;;;;;19.02;70.68;100144.78;4965270;28;20556;-75
2021/07/25 04:11:54;;;;;;;13.93;10.30;;;;;;;19.05;70.77;100152.50;4961244;28;20587;-75
2021/07/25 04:14:21;;;;;;;13.63;10.07;;;;;;;19.07;71.39;100155.03;4970319;28;20309;-74
2021/07/25 04:16:48;;;;;;;14.00;10.40;;;;;;;19.09;71.00;100163.69;4969964;28;20437;-75
2021/07/25 04:19:14;;;;;;;14.17;10.53;;;;;;;19.12;70.71;100158.22;4970199;28;20574;-75
2021/07/25 04:21:41;;;;;;;11.20;9.90;;;;;;;19.16;70.65;100164.13;4969702;28;20217;-74
2021/07/25 04:24:07;;;;;;;14.33;10.97;;;;;;;19.19;71.09;100163.91;4969149;28;20289;-74
2021/07/25 04:26:34;;;;;;;13.70;10.90;;;;;;;19.21;71.03;100152.28;4963298;28;20221;-74
2021/07/25 04:29:02;;;;;;;13.13;11.00;;;;;;;19.23;70.75;100162.75;4952802;28;20570;-74
2021/07/25 04:31:29;;;;;;;13.80;10.30;;;;;;;19.27;71.06;100161.56;4979359;28;20210;-74
2021/07/25 04:33:56;;;;;;;12.40;10.70;;;;;;;19.29;71.11;100165.81;4967663;28;20213;-74
2021/07/25 04:36:26;;;;;;;13.50;10.10;;;;;;;19.34;70.84;100154.91;4961139;28;20550;-74
2021/07/25 04:38:54;;;;;;;13.63;10.77;;;;;;;19.38;70.93;100150.25;4967300;28;20780;-74
2021/07/25 04:41:23;;;;;;;13.63;11.10;;;;;;;19.40;71.08;100149.19;4962402;28;20199;-74
2021/07/25 04:43:56;;;;;;;12.77;9.70;;;;;;;19.44;71.31;100144.53;4957408;28;20238;-75
2021/07/25 04:46:28;;;;;;;12.73;10.40;;;;;;;19.47;70.95;100153.09;4965585;28;20230;-74
2021/07/25 04:49:01;;;;;;;10.90;9.70;;;;;;;19.51;71.20;100150.22;4966265;28;20229;-73
2021/07/25 04:51:30;;;;;;;13.87;10.47;;;;;;;19.54;71.24;100152.66;4958939;28;20657;-74
2021/07/25 04:54:05;;;;;;;14.33;10.00;;;;;;;19.55;71.13;100151.72;4967965;28;20190;-73
2021/07/25 04:56:58;;;;;;;14.67;10.60;;;;;;;19.56;71.44;100145.44;4974614;28;20392;-74
2021/07/25 04:59:28;;;;;;;13.80;10.20;;;;;;;19.55;72.04;100141.97;4968979;28;20205;-74
2021/07/25 05:02:00;;;;;;;11.90;10.10;;;;;;;19.57;71.93;100139.22;4971270;28;20202;-74
2021/07/25 05:04:28;;;;;;;13.90;9.93;;;;;;;19.56;73.18;100148.97;4969141;28;20502;-74
2021/07/25 05:06:55;;;;;;;12.27;10.23;;;;;;;19.54;72.97;100139.44;4971329;28;20259;-74
2021/07/25 05:09:22;;;;;;;11.50;9.90;;;;;;;19.55;73.12;100143.78;4967565;28;20198;-74
2021/07/25 05:11:54;;;;;;;12.90;10.13;;;;;;;19.54;72.54;100148.22;4970902;28;20431;-75
2021/07/25 05:14:25;;;;;;;14.50;10.60;;;;;;;19.53;72.52;100154.47;4969113;28;20249;-74
2021/07/25 05:17:03;;;;;;;11.83;10.13;;;;;;;19.49;72.61;100153.00;4970693;28;20317;-74
2021/07/25 05:19:45;;;;;;;13.93;10.00;;;;;;;19.47;72.96;100160.16;4969857;28;20214;-74
2021/07/25 05:22:24;;;;;;;11.23;9.43;;;;;;;19.54;73.79;100165.88;4964271;28;20209;-74
2021/07/25 05:24:51;;;;;;;13.27;10.10;;;;;;;19.60;76.35;100171.56;4970729;28;20225;-74
2021/07/25 05:27:19;;;;;;;12.53;10.20;;;;;;;19.58;77.67;100173.47;4967763;28;20322;-74
2021/07/25 05:29:47;;;;;;;13.23;10.90;;;;;;;19.65;74.77;100171.25;4983418;28;20202;-74
2021/07/25 05:32:16;;;;;;;14.20;10.60;;;;;;;19.74;73.20;100175.91;4970922;28;20298;-74
2021/07/25 05:34:42;;;;;;;15.07;10.93;;;;;;;19.81;72.48;100176.31;4969100;28;20214;-74
2021/07/25 05:37:09;;;;;;;13.93;11.10;;;;;;;19.86;72.03;100177.69;4969675;28;20225;-74
2021/07/25 05:39:35;;;;;;;14.47;10.63;;;;;;;19.93;72.34;100171.91;4968032;28;20678;-74
2021/07/25 05:42:02;;;;;;;12.00;10.17;;;;;;;20.01;72.24;100169.56;4967518;28;20201;-74
2021/07/25 05:44:30;;;;;;;11.97;10.67;;;;;;;20.06;71.85;100172.72;4968882;28;20210;-73
2021/07/25 05:46:57;;;;;;;15.17;10.93;;;;;;;20.11;71.85;100175.88;4966266;28;20214;-74
2021/07/25 05:49:25;;;;;;;13.63;10.53;;;;;;;20.15;71.42;100180.00;4967240;28;20217;-74
2021/07/25 05:51:51;;;;;;;14.77;11.37;;;;;;;20.25;71.51;100172.22;4966124;28;20217;-74
2021/07/25 05:54:17;;;;;;;13.60;10.40;;;;;;;20.36;70.81;100166.13;4968657;28;20210;-75
2021/07/25 05:56:44;;;;;;;13.90;11.20;;;;;;;20.38;70.12;100174.81;4971085;28;20254;-74
2021/07/25 05:59:11;;;;;;;11.83;10.20;;;;;;;20.41;70.56;100175.41;4973342;28;20313;-73
2021/07/25 06:01:38;;;;;;;12.87;11.20;;;;;;;20.48;70.53;100172.34;4957921;28;20202;-73
2021/07/25 06:04:05;;;;;;;12.80;10.77;;;;;;;20.52;70.25;100171.13;4965724;28;20573;-73
2021/07/25 06:06:33;;;;;;;11.53;9.47;;;;;;;20.54;70.53;100169.22;4969739;28;20217;-73
2021/07/25 06:08:59;;;;;;;12.77;10.37;;;;;;;20.48;70.61;100167.88;4966228;28;20672;-73
2021/07/25 06:11:26;;;;;;;11.83;9.93;;;;;;;20.51;70.52;100170.28;4964583;28;20209;-73
2021/07/25 06:13:53;;;;;;;12.60;10.63;;;;;;;20.53;70.65;100164.88;4959500;28;20291;-73
2021/07/25 06:16:20;;;;;;;14.77;10.57;;;;;;;20.54;70.63;100174.50;4954404;28;20226;-73
2021/07/25 06:18:48;;;;;;;13.43;10.87;;;;;;;20.50;70.29;100165.94;4967829;28;20208;-73
2021/07/25 06:21:14;;;;;;;11.90;9.67;;;;;;;20.54;70.63;100169.22;4967340;28;20253;-73
2021/07/25 06:23:42;;;;;;;12.67;10.03;;;;;;;20.59;70.74;100159.13;4966390;28;20270;-73
2021/07/25 06:26:08;;;;;;;12.67;10.67;;;;;;;20.65;70.75;100150.75;4965936;28;20213;-73
2021/07/25 06:28:35;;;;;;;12.00;10.27;;;;;;;20.72;70.29;100167.88;4968130;28;20293;-73
2021/07/25 06:31:01;;;;;;;11.40;10.10;;;;;;;20.91;71.33;100164.63;4969279;28;20202;-73
2021/07/25 06:33:29;;;;;;;13.60;10.23;;;;;;;21.09;69.89;100148.28;4957368;28;20568;-73
2021/07/25 06:35:56;;;;;;;13.27;10.43;;;;;;;21.18;69.66;100156.38;4952967;28;20223;-73
2021/07/25 06:38:24;;;;;;;13.93;10.90;;;;;;;21.32;68.65;100165.91;4962890;28;20268;-73
2021/07/25 06:40:53;;;;;;;12.57;10.03;;;;;;;21.36;68.48;100169.16;4961828;28;20684;-73
2021/07/25 06:43:21;;;;;;;12.77;10.67;;;;;;;21.42;68.47;100162.50;4962674;28;20206;-73
2021/07/25 06:45:54;;;;;;;13.57;9.83;;;;;;;21.44;68.14;100160.56;4971839;28;20225;-73
2021/07/25 06:48:21;;;;;;;13.53;11.17;;;;;;;21.54;68.09;100159.75;4970121;28;20296;-73
2021/07/25 06:50:49;;;;;;;11.33;10.13;;;;;;;21.61;68.17;100164.59;4966660;28;20204;-73
2021/07/25 06:53:16;;;;;;;11.07;9.73;;;;;;;21.61;67.83;100170.72;4966866;28;20427;-73
2021/07/25 06:55:43;;;;;;;12.67;10.87;;;;;;;21.60;67.87;100171.69;4963429;28;20577;-73
2021/07/25 06:58:11;;;;;;;10.70;9.60;;;;;;;21.54;67.08;100170.34;4967652;28;20230;-73
2021/07/25 07:00:37;;;;;;;13.37;10.23;;;;;;;21.59;67.36;100174.47;4970853;28;20213;-73
2021/07/25 07:03:04;;;;;;;12.03;10.43;;;;;;;21.64;67.96;100180.25;4969271;28;20206;-76
2021/07/25 07:05:32;;;;;;;12.00;9.90;;;;;;;21.74;68.75;100189.19;4968417;28;20226;-74
2021/07/25 07:08:00;;;;;;;13.70;10.47;;;;;;;21.83;68.03;100192.88;4966520;28;20616;-75
2021/07/25 07:10:29;;;;;;;12.40;10.63;;;;;;;21.91;69.14;100193.94;4968367;28;20208;-73
2021/07/25 07:12:57;;;;;;;12.77;10.40;;;;;;;21.98;67.38;100193.47;4967656;28;20631;-73
2021/07/25 07:15:27;;;;;;;11.97;9.57;;;;;;;22.02;66.63;100205.50;4967845;28;20218;-73
2021/07/25 07:17:55;;;;;;;10.27;8.93;;;;;;;22.06;65.98;100204.31;4964464;28;20285;-73
2021/07/25 07:20:22;;;;;;;11.17;9.60;;;;;;;22.11;67.57;100199.47;4965656;28;20213;-73
2021/07/25 07:22:52;;;;;;;12.20;9.47;;;;;;;22.17;66.56;100208.75;4964903;28;20637;-74
2021/07/25 07:25:19;;;;;;;11.70;9.50;;;;;;;22.28;66.88;100206.06;4964600;28;20228;-74
2021/07/25 07:27:45;;;;;;;12.77;10.17;;;;;;;22.43;66.31;100215.44;4962546;28;20202;-75
2021/07/25 07:30:12;;;;;;;12.45;9.40;;;;;;;22.56;66.17;100207.28;4966233;28;20202;-74
2021/07/25 07:32:40;;;;;;;12.57;9.27;;;;;;;22.70;65.65;100208.81;4962793;28;20198;-74
2021/07/25 07:35:08;;;;;;;11.33;9.50;;;;;;;22.87;65.13;100207.41;4964924;28;20218;-74
2021/07/25 07:37:34;;;;;;;11.50;9.45;;;;;;;23.05;64.42;100208.50;4964596;28;20209;-75
2021/07/25 07:40:00;;;;;;;10.85;9.57;;;;;;;23.19;64.05;100223.28;4964915;28;20218;-74
2021/07/25 07:42:27;;;;;;;11.45;9.25;;;;;;;23.31;63.91;100217.91;4963420;28;20203;-74
2021/07/25 07:44:53;;;;;;;11.23;9.52;;;;;;;23.42;63.83;100205.34;4961681;28;20214;-74
2021/07/25 07:47:22;;;;;;;12.25;9.40;;;;;;;23.55;63.81;100198.94;4961616;28;20202;-74
2021/07/25 07:49:50;;;;;;;10.88;9.73;;;;;;;23.69;64.50;100193.25;4965116;28;20241;-74
2021/07/25 07:52:16;;;;;;;11.68;9.45;;;;;;;23.86;61.88;100198.94;4966097;28;20610;-74
2021/07/25 07:54:43;;;;;;;12.65;9.35;;;;;;;24.03;63.87;100195.63;4962137;28;20718;-74
2021/07/25 07:57:09;;;;;;;11.88;9.43;;;;;;;24.19;63.26;100203.91;4966142;28;20580;-74
2021/07/25 07:59:35;;;;;;;9.48;8.25;;;;;;;24.33;61.07;100197.34;4965915;28;20701;-74
2021/07/25 08:02:02;;;;;;;12.75;8.93;;;;;;;24.49;60.95;100188.78;4959721;28;20209;-75
2021/07/25 08:04:29;;;;;;;11.73;9.15;;;;;;;24.59;59.85;100185.28;4965677;28;20228;-74
2021/07/25 08:06:56;;;;;;;10.75;8.85;;;;;;;24.72;58.04;100189.34;4964175;28;20225;-74
2021/07/25 08:09:23;;;;;;;9.82;8.77;;;;;;;24.89;60.06;100190.47;4966175;28;20205;-75
2021/07/25 08:11:49;;;;;;;9.88;8.38;;;;;;;24.98;58.27;100191.44;4964582;28;20202;-75
2021/07/25 08:14:19;;;;;;;9.68;8.43;;;;;;;25.05;58.28;100189.03;4964716;28;20201;-75
2021/07/25 08:16:46;;;;;;;11.73;8.80;;;;;;;25.17;58.42;100197.69;4964016;28;20397;-75
2021/07/25 08:19:12;;;;;;;10.25;8.45;;;;;;;25.34;57.83;100196.13;4967952;28;20285;-75
2021/07/25 08:21:39;;;;;;;12.35;7.85;;;;;;;25.50;56.02;100188.31;4961316;28;20783;-74
2021/07/25 08:24:08;;;;;;;9.57;8.25;;;;;;;25.62;56.20;100192.47;4957836;28;20209;-74
2021/07/25 08:26:35;;;;;;;9.18;7.63;;;;;;;25.67;55.44;100186.69;4964186;28;20225;-74
2021/07/25 08:29:02;;;;;;;10.60;8.30;;;;;;;25.72;56.32;100195.09;4965221;28;20216;-74
2021/07/25 08:31:29;;;;;;;9.90;8.40;;;;;;;25.63;55.30;100191.50;4969908;28;20206;-74
2021/07/25 08:33:55;;;;;;;9.93;8.07;;;;;;;25.56;55.57;100197.56;4963529;28;20567;-74
2021/07/25 08:36:22;;;;;;;11.93;8.18;;;;;;;25.75;55.75;100194.81;4964457;28;20222;-74
2021/07/25 08:38:49;;;;;;;9.45;7.75;;;;;;;25.84;55.14;100193.09;4961343;28;20714;-75
2021/07/25 08:41:28;;;;;;;9.05;7.72;;;;;;;25.67;56.07;100200.06;4968316;28;20241;-75
2021/07/25 08:44:16;;;;;;;11.75;8.05;;;;;;;25.66;55.76;100201.03;4967186;28;20217;-75
2021/07/25 08:46:44;;;;;;;9.52;8.52;;;;;;;25.68;55.09;100199.03;4961034;28;20254;-74
2021/07/25 08:49:17;;;;;;;10.57;8.35;;;;;;;25.80;56.64;100197.84;4965410;28;20206;-74
2021/07/25 08:51:59;;;;;;;11.32;8.30;;;;;;;25.88;56.50;100194.47;4969258;28;20232;-74
2021/07/25 08:54:29;;;;;;;9.68;7.93;;;;;;;25.95;55.78;100203.56;4969169;28;20206;-74
2021/07/25 08:57:00;;;;;;;8.73;7.82;;;;;;;26.11;56.07;100191.41;4961538;28;20698;-74
2021/07/25 08:59:29;;;;;;;9.80;7.90;;;;;;;26.14;57.43;100186.59;4967382;28;20205;-74
2021/07/25 09:01:59;;;;;;;10.50;7.82;;;;;;;26.21;56.48;100193.00;4968358;28;20214;-74
2021/07/25 09:04:26;;;;;;;9.10;7.88;;;;;;;26.23;55.47;100195.53;4968270;28;20229;-75
2021/07/25 09:06:55;;;;;;;9.98;7.55;;;;;;;26.32;56.10;100196.44;4965880;28;20626;-75
2021/07/25 09:09:22;;;;;;;9.18;7.78;;;;;;;26.35;54.28;100193.44;4966785;28;20582;-74
2021/07/25 09:11:49;;;;;;;9.13;7.50;;;;;;;26.59;55.82;100204.34;4969293;28;20559;-75
2021/07/25 09:14:17;;;;;;;8.95;7.40;;;;;;;26.79;56.35;100198.88;4982580;28;20212;-75
2021/07/25 09:16:44;;;;;;;11.15;8.70;;;;;;;26.93;55.88;100200.13;4963326;28;20233;-75
2021/07/25 09:19:10;;;;;;;9.50;8.13;;;;;;;27.13;56.74;100188.22;4968873;28;20214;-74
2021/07/25 09:21:38;;;;;;;10.98;8.38;;;;;;;27.23;52.70;100192.63;4965851;28;20216;-74
2021/07/25 09:24:18;;;;;;;11.68;8.77;;;;;;;27.32;55.58;100181.00;4962562;28;20264;-74
2021/07/25 09:26:57;;;;;;;9.70;8.70;;;;;;;27.41;56.37;100172.00;4969653;28;20330;-74
2021/07/25 09:29:27;;;;;;;9.82;8.27;;;;;;;27.36;52.89;100180.50;4969358;28;20257;-74
2021/07/25 09:32:10;;;;;;;8.60;7.38;;;;;;;27.55;51.84;100178.59;4966112;28;20210;-74
2021/07/25 09:34:38;;;;;;;10.60;8.10;;;;;;;27.75;53.57;100168.44;4967309;28;20213;-74
2021/07/25 09:37:10;;;;;;;8.35;7.55;;;;;;;27.88;53.69;100170.66;4967904;28;20229;-74
2021/07/25 09:39:37;;;;;;;8.52;7.38;;;;;;;27.93;52.60;100173.72;4964959;28;20727;-74
2021/07/25 09:42:05;;;;;;;9.82;8.20;;;;;;;28.07;53.00;100175.78;4967478;28;20206;-75
2021/07/25 09:44:44;;;;;;;9.00;8.10;;;;;;;28.05;53.81;100172.41;4966371;28;20305;-74
2021/07/25 09:47:24;;;;;;;8.98;7.72;;;;;;;28.18;53.13;100169.25;4962586;28;20320;-75
2021/07/25 09:49:51;;;;;;;8.45;7.30;;;;;;;28.23;52.66;100172.28;4964180;28;20243;-74
2021/07/25 09:52:17;;;;;;;9.85;7.75;;;;;;;28.38;51.04;100168.94;4961949;28;20925;-75
2021/07/25 09:54:44;;;;;;;8.40;7.45;;;;;;;28.52;50.91;100161.03;4968083;28;20202;-75
2021/07/25 09:57:12;;;;;;;8.52;7.13;;;;;;;28.66;50.28;100158.72;4967027;28;20577;-76
2021/07/25 09:59:40;;;;;;;7.57;6.40;;;;;;;28.88;51.09;100159.84;4978558;28;20202;-76
2021/07/25 10:02:31;;;;;;;9.10;7.40;;;;;;;28.92;49.36;100161.22;4964070;28;20210;-74
2021/07/25 10:05:06;;;;;;;7.95;6.85;;;;;;;28.98;49.06;100160.50;4968108;28;20628;-74
2021/07/25 10:07:33;;;;;;;8.15;6.88;;;;;;;29.14;50.09;100159.63;4966056;28;20796;-74
2021/07/25 10:10:00;;;;;;;7.65;6.85;;;;;;;29.22;48.22;100161.50;4960012;28;20205;-74
2021/07/25 10:12:28;;;;;;;8.05;7.22;;;;;;;29.22;50.17;100164.19;4970228;28;20209;-74
2021/07/25 10:14:58;;;;;;;8.13;7.32;;;;;;;29.23;50.92;100161.34;4968585;28;20706;-73
2021/07/25 10:17:26;;;;;;;10.95;7.63;;;;;;;29.27;47.42;100164.50;4967160;28;20252;-74
2021/07/25 10:19:54;;;;;;;9.65;7.30;;;;;;;29.19;46.46;100170.72;4966659;28;21290;-74
2021/07/25 10:22:23;;;;;;;9.00;7.18;;;;;;;29.29;50.01;100167.00;4968159;28;20762;-74
2021/07/25 10:24:52;;;;;;;8.57;7.00;;;;;;;29.39;48.49;100162.25;4966058;28;20217;-74
2021/07/25 10:27:19;;;;;;;8.60;7.32;;;;;;;29.51;48.07;100163.53;4968561;28;20242;-74
2021/07/25 10:29:46;;;;;;;10.85;7.65;;;;;;;29.66;49.44;100163.66;4964008;28;20214;-74
2021/07/25 10:32:18;;;;;;;9.45;7.78;;;;;;;29.63;48.34;100158.63;4961414;28;20758;-76
2021/07/25 10:34:47;;;;;;;8.95;7.32;;;;;;;29.49;48.22;100160.22;4968270;28;20202;-75
2021/07/25 10:37:14;;;;;;;10.10;7.65;;;;;;;29.34;49.38;100156.56;4966814;28;20233;-75
2021/07/25 10:39:44;;;;;;;8.68;7.78;;;;;;;29.53;49.77;100156.16;4966130;28;20292;-75
2021/07/25 10:42:14;;;;;;;8.50;7.50;;;;;;;29.66;46.79;100158.28;4965644;28;20212;-74
2021/07/25 10:44:42;;;;;;;9.82;7.97;;;;;;;29.61;48.46;100150.75;4964132;28;20212;-75
2021/07/25 10:47:27;;;;;;;9.32;7.53;;;;;;;29.75;46.36;100159.09;4968029;28;20699;-75
2021/07/25 10:50:00;;;;;;;8.90;7.72;;;;;;;29.77;46.86;100157.09;4966173;28;20210;-75
2021/07/25 10:52:28;;;;;;;11.32;8.43;;;;;;;29.81;47.38;100147.66;4963591;28;20626;-75
2021/07/25 10:54:54;;;;;;;8.98;8.07;;;;;;;29.72;49.88;100146.00;4953862;28;20223;-74
2021/07/25 10:57:21;;;;;;;9.57;7.95;;;;;;;29.87;47.89;100155.00;4966904;28;20284;-75
2021/07/25 10:59:50;;;;;;;9.23;8.15;;;;;;;30.00;47.39;100152.56;4962286;28;20212;-75
2021/07/25 11:02:50;;;;;;;8.73;7.50;;;;;;;30.05;48.14;100149.34;4967463;28;20213;-74
2021/07/25 11:05:18;;;;;;;10.68;8.00;;;;;;;30.14;47.26;100145.56;4977213;28;20226;-75
2021/07/25 11:07:56;;;;;;;8.77;7.78;;;;;;;29.98;45.67;100151.91;4967039;28;20198;-74
2021/07/25 11:10:31;;;;;;;9.15;7.93;;;;;;;30.21;46.96;100146.53;4965433;28;20212;-74
2021/07/25 11:13:18;;;;;;;8.73;7.82;;;;;;;30.38;46.87;100149.97;4966369;28;20608;-75
2021/07/25 11:15:46;;;;;;;9.40;8.15;;;;;;;30.44;44.03;100148.41;4966976;28;20708;-74
2021/07/25 11:18:28;;;;;;;9.32;7.30;;;;;;;30.59;44.54;100148.44;4966183;28;21223;-75
2021/07/25 11:20:58;;;;;;;9.55;7.93;;;;;;;30.59;46.14;100151.13;4965894;28;20205;-75
2021/07/25 11:23:35;;;;;;;9.60;8.45;;;;;;;30.50;45.39;100138.75;4964787;28;20206;-76